createdAt,value
2023-05-19T00:01:16.085Z,63.67
2023-05-19T00:04:01.167Z,63.60
2023-05-19T00:06:46.044Z,63.89
2023-05-19T00:09:31.096Z,63.17
2023-05-19T00:12:16.002Z,63.04
2023-05-19T00:15:00.983Z,63.15
2023-05-19T00:17:45.919Z,62.77
2023-05-19T00:20:30.924Z,62.83
2023-05-19T00:23:15.679Z,63.01
2023-05-19T00:26:00.563Z,63.12
2023-05-19T00:28:45.528Z,63.15
2023-05-19T00:31:30.341Z,62.54
2023-05-19T00:34:15.347Z,62.73
2023-05-19T00:37:02.306Z,62.52
2023-05-19T00:39:47.274Z,63.08
2023-05-19T00:42:32.364Z,63.17
2023-05-19T00:45:17.261Z,63.09
2023-05-19T00:48:02.454Z,62.88
2023-05-19T00:50:47.355Z,63.64
2023-05-19T00:53:32.388Z,63.59
2023-05-19T00:56:17.515Z,63.80
2023-05-19T00:59:02.377Z,63.91
2023-05-19T01:01:47.461Z,64.04
2023-05-19T01:04:32.504Z,63.81
2023-05-19T01:07:17.662Z,63.52
2023-05-19T01:10:02.604Z,63.51
2023-05-19T01:12:47.699Z,63.38
2023-05-19T01:15:32.623Z,63.43
2023-05-19T01:18:17.529Z,63.24
2023-05-19T01:21:02.545Z,63.06
2023-05-19T01:23:47.558Z,63.01
2023-05-19T01:26:32.464Z,62.49
2023-05-19T01:29:17.339Z,62.58
2023-05-19T01:32:02.454Z,62.61
2023-05-19T01:34:47.300Z,63.14
2023-05-19T01:37:32.039Z,63.29
2023-05-19T01:40:16.957Z,62.94
2023-05-19T01:43:02.098Z,62.99
2023-05-19T01:45:47.052Z,62.37
2023-05-19T01:48:31.941Z,63.16
2023-05-19T01:51:17.037Z,63.30
2023-05-19T01:54:02.154Z,63.33
2023-05-19T01:56:47.172Z,63.80
2023-05-19T01:59:32.054Z,63.78
2023-05-19T02:02:17.003Z,63.86
2023-05-19T02:05:01.981Z,63.29
2023-05-19T02:07:47.065Z,63.04
2023-05-19T02:10:32.222Z,62.97
2023-05-19T02:13:17.488Z,62.94
2023-05-19T02:16:02.443Z,63.66
2023-05-19T02:18:47.408Z,63.58
2023-05-19T02:21:32.383Z,63.22
2023-05-19T02:24:17.271Z,63.04
2023-05-19T02:27:02.236Z,62.88
2023-05-19T02:29:47.361Z,62.72
2023-05-19T02:32:32.247Z,62.66
2023-05-19T02:35:17.184Z,62.55
2023-05-19T02:38:01.959Z,62.98
2023-05-19T02:40:46.860Z,63.27
2023-05-19T02:43:31.812Z,63.09
2023-05-19T02:46:16.910Z,63.14
2023-05-19T02:49:01.728Z,63.15
2023-05-19T02:51:46.712Z,63.39
2023-05-19T02:54:31.703Z,63.19
2023-05-19T02:57:16.632Z,63.26
2023-05-19T03:00:01.764Z,63.28
2023-05-19T03:02:46.782Z,63.53
2023-05-19T03:05:31.603Z,63.20
2023-05-19T03:08:16.656Z,63.24
2023-05-19T03:11:01.249Z,62.91
2023-05-19T03:13:46.127Z,62.78
2023-05-19T03:16:31.023Z,62.94
2023-05-19T03:19:15.949Z,63.28
2023-05-19T03:22:00.886Z,63.01
2023-05-19T03:24:45.909Z,63.20
2023-05-19T03:27:30.955Z,63.25
2023-05-19T03:30:15.937Z,63.43
2023-05-19T03:33:00.857Z,63.14
2023-05-19T03:35:45.815Z,62.90
2023-05-19T03:38:30.600Z,62.85
2023-05-19T03:41:15.517Z,62.94
2023-05-19T03:44:00.319Z,63.67
2023-05-19T03:46:45.333Z,63.47
2023-05-19T03:49:30.207Z,63.05
2023-05-19T03:52:15.249Z,62.87
2023-05-19T03:55:00.341Z,62.61
2023-05-19T03:57:45.285Z,62.83
2023-05-19T04:00:30.518Z,62.71
2023-05-19T04:03:15.802Z,62.99
2023-05-19T04:06:00.715Z,63.11
2023-05-19T04:08:45.557Z,63.28
2023-05-19T04:11:30.389Z,62.85
2023-05-19T04:14:15.366Z,62.59
2023-05-19T04:17:00.339Z,63.25
2023-05-19T04:19:45.277Z,63.35
2023-05-19T04:22:30.072Z,63.75
2023-05-19T04:25:14.883Z,63.10
2023-05-19T04:27:59.872Z,63.18
2023-05-19T04:30:44.995Z,63.33
2023-05-19T04:33:30.069Z,63.55
2023-05-19T04:36:14.981Z,63.69
2023-05-19T04:38:59.961Z,63.37
2023-05-19T04:41:44.952Z,63.24
2023-05-19T04:44:30.056Z,63.57
2023-05-19T04:47:14.870Z,63.65
2023-05-19T04:50:00.033Z,63.74
2023-05-19T04:52:45.018Z,63.96
2023-05-19T04:55:30.479Z,63.45
2023-05-19T04:58:15.515Z,63.82
2023-05-19T05:01:00.331Z,63.57
2023-05-19T05:03:45.322Z,63.61
2023-05-19T05:06:30.258Z,63.36
2023-05-19T05:09:15.139Z,63.56
2023-05-19T05:11:59.981Z,63.51
2023-05-19T05:14:44.963Z,63.89
2023-05-19T05:17:29.926Z,64.11
2023-05-19T05:20:14.969Z,64.28
2023-05-19T05:23:00.133Z,64.04
2023-05-19T05:25:45.058Z,64.09
2023-05-19T05:28:30.252Z,64.10
2023-05-19T05:31:15.234Z,64.25
2023-05-19T05:34:00.195Z,64.46
2023-05-19T05:36:45.096Z,63.90
2023-05-19T05:39:30.152Z,64.41
2023-05-19T05:42:15.230Z,63.81
2023-05-19T05:45:00.174Z,63.80
2023-05-19T05:47:45.186Z,64.31
2023-05-19T05:50:30.103Z,64.95
2023-05-19T05:53:15.157Z,64.58
2023-05-19T05:56:00.211Z,65.05
2023-05-19T05:58:45.193Z,64.02
2023-05-19T06:01:30.099Z,64.02
2023-05-19T06:04:15.068Z,63.22
2023-05-19T06:07:00.243Z,64.36
2023-05-19T06:09:45.160Z,65.78
2023-05-19T06:12:30.254Z,65.88
2023-05-19T06:15:15.197Z,65.42
2023-05-19T06:17:59.988Z,66.20
2023-05-19T06:20:44.819Z,67.70
2023-05-19T06:23:29.789Z,68.56
2023-05-19T06:26:14.711Z,68.21
2023-05-19T06:28:59.769Z,68.77
2023-05-19T06:31:44.793Z,67.96
2023-05-19T06:34:29.705Z,67.54
2023-05-19T06:37:14.737Z,68.91
2023-05-19T06:39:59.553Z,68.33
2023-05-19T06:42:44.476Z,68.28
2023-05-19T06:45:29.572Z,67.41
2023-05-19T06:48:14.562Z,67.78
2023-05-19T06:50:59.556Z,67.81
2023-05-19T06:53:44.595Z,66.98
2023-05-19T06:56:29.583Z,68.20
2023-05-19T06:59:14.322Z,69.58
2023-05-19T07:01:59.557Z,70.13
2023-05-19T07:04:44.331Z,69.48
2023-05-19T07:07:29.212Z,68.82
2023-05-19T07:10:14.237Z,68.52
2023-05-19T07:12:59.715Z,67.11
2023-05-19T07:15:44.621Z,68.73
2023-05-19T07:18:29.480Z,67.63
2023-05-19T07:21:15.352Z,69.34
2023-05-19T07:24:00.551Z,69.12
2023-05-19T07:26:45.616Z,69.26
2023-05-19T07:29:30.653Z,70.05
2023-05-19T07:32:15.683Z,71.01
2023-05-19T07:35:00.815Z,70.22
2023-05-19T07:37:45.694Z,72.12
2023-05-19T07:40:30.851Z,69.98
2023-05-19T07:43:15.770Z,71.02
2023-05-19T07:46:00.823Z,68.96
2023-05-19T07:48:45.941Z,69.62
2023-05-19T07:51:30.933Z,69.47
2023-05-19T07:54:15.807Z,69.37
2023-05-19T07:57:00.735Z,69.51
2023-05-19T07:59:45.706Z,71.33
2023-05-19T08:02:30.655Z,69.88
2023-05-19T08:05:15.623Z,68.50
2023-05-19T08:08:00.532Z,67.08
2023-05-19T08:10:45.570Z,65.77
2023-05-19T08:13:30.403Z,67.13
2023-05-19T08:16:15.456Z,66.29
2023-05-19T08:19:00.360Z,64.99
2023-05-19T08:21:45.411Z,65.00
2023-05-19T08:24:30.586Z,64.47
2023-05-19T08:27:15.430Z,63.17
2023-05-19T08:30:00.345Z,65.04
2023-05-19T08:32:45.453Z,65.13
2023-05-19T08:35:30.647Z,66.13
2023-05-19T08:38:15.584Z,64.04
2023-05-19T08:41:00.592Z,63.58
2023-05-19T08:43:45.624Z,64.66
2023-05-19T08:46:30.493Z,64.50
2023-05-19T08:49:17.405Z,63.32
2023-05-19T08:52:03.037Z,63.28
2023-05-19T08:54:47.996Z,63.49
2023-05-19T08:57:33.088Z,63.04
2023-05-19T09:00:18.014Z,62.95
2023-05-19T09:03:17.369Z,63.19
2023-05-19T09:06:08.286Z,62.17
2023-05-19T09:08:53.061Z,63.31
2023-05-19T09:11:38.044Z,63.08
2023-05-19T09:14:23.011Z,63.35
2023-05-19T09:17:07.678Z,60.62
2023-05-19T09:19:52.730Z,62.89
2023-05-19T09:22:37.944Z,63.09
2023-05-19T09:25:22.958Z,61.61
2023-05-19T09:28:07.836Z,60.66
2023-05-19T09:30:52.883Z,59.64
2023-05-19T09:33:37.954Z,61.70
2023-05-19T09:36:22.871Z,59.78
2023-05-19T09:39:07.832Z,59.34
2023-05-19T09:41:53.010Z,59.64
2023-05-19T09:44:38.080Z,59.09
2023-05-19T09:47:23.013Z,57.55
2023-05-19T09:50:08.105Z,56.90
2023-05-19T09:52:52.773Z,56.31
2023-05-19T09:55:37.789Z,55.52
2023-05-19T09:58:22.791Z,54.88
2023-05-19T10:01:07.851Z,55.87
2023-05-19T10:03:52.741Z,53.89
2023-05-19T10:06:37.716Z,53.57
2023-05-19T10:09:22.564Z,55.19
2023-05-19T10:12:07.457Z,53.28
2023-05-19T10:14:52.424Z,53.15
2023-05-19T10:17:37.409Z,53.25
2023-05-19T10:20:23.607Z,54.05
2023-05-19T10:23:08.390Z,53.08
2023-05-19T10:25:53.502Z,51.21
2023-05-19T10:28:38.322Z,52.13
2023-05-19T10:31:23.343Z,53.69
2023-05-19T10:34:08.461Z,52.13
2023-05-19T10:36:53.444Z,52.59
2023-05-19T10:39:38.588Z,53.51
2023-05-19T10:42:23.580Z,53.45
2023-05-19T10:45:08.439Z,53.63
2023-05-19T10:47:53.339Z,52.79
2023-05-19T10:50:38.239Z,52.69
2023-05-19T10:53:23.140Z,54.96
2023-05-19T10:56:08.104Z,53.86
2023-05-19T10:58:53.080Z,53.15
2023-05-19T11:01:38.108Z,53.18
2023-05-19T11:04:22.993Z,52.58
2023-05-19T11:07:07.993Z,52.87
2023-05-19T11:09:53.018Z,52.86
2023-05-19T11:12:37.906Z,52.78
2023-05-19T11:15:22.742Z,52.09
2023-05-19T11:18:08.218Z,52.19
2023-05-19T11:20:53.211Z,51.82
2023-05-19T11:23:38.181Z,51.55
2023-05-19T11:26:23.031Z,51.44
2023-05-19T11:29:08.045Z,51.29
2023-05-19T11:31:52.842Z,52.11
2023-05-19T11:34:37.814Z,52.02
2023-05-19T11:37:22.657Z,51.14
2023-05-19T11:40:07.609Z,51.63
2023-05-19T11:42:52.490Z,51.67
2023-05-19T11:45:37.574Z,52.07
2023-05-19T11:48:22.469Z,52.12
2023-05-19T11:51:07.237Z,51.74
2023-05-19T11:53:52.180Z,50.77
2023-05-19T11:56:37.080Z,51.86
2023-05-19T11:59:22.027Z,51.64
2023-05-19T12:02:07.000Z,51.99
2023-05-19T12:04:52.407Z,51.53
2023-05-19T12:07:37.350Z,51.81
2023-05-19T12:10:22.324Z,51.77
2023-05-19T12:13:07.457Z,51.90
2023-05-19T12:15:52.552Z,52.90
2023-05-19T12:18:37.769Z,51.97
2023-05-19T12:21:22.614Z,52.22
2023-05-19T12:24:07.572Z,52.12
2023-05-19T12:26:52.618Z,51.72
2023-05-19T12:29:37.592Z,51.85
2023-05-19T12:32:22.246Z,51.34
2023-05-19T12:35:07.142Z,51.26
2023-05-19T12:37:52.134Z,52.61
2023-05-19T12:40:37.547Z,52.54
2023-05-19T12:46:42.344Z,52.16
2023-05-19T12:59:30.576Z,53.55
2023-05-19T13:02:25.673Z,53.60
2023-05-19T13:05:10.494Z,54.30
2023-05-19T13:07:55.555Z,54.74
2023-05-19T13:10:43.543Z,54.81
2023-05-19T13:13:28.783Z,54.73
2023-05-19T13:16:13.582Z,54.10
2023-05-19T13:18:59.451Z,54.51
2023-05-19T13:21:44.229Z,56.61
2023-05-19T13:24:31.210Z,57.46
2023-05-19T13:27:21.246Z,57.15
2023-05-19T13:30:06.366Z,57.25
2023-05-19T13:32:51.776Z,58.12
2023-05-19T13:35:37.060Z,58.97
2023-05-19T13:38:26.408Z,58.23
2023-05-19T13:41:12.655Z,59.24
2023-05-19T13:43:59.347Z,58.26
2023-05-19T13:46:46.099Z,57.51
2023-05-19T13:49:32.356Z,57.83
2023-05-19T13:52:17.496Z,57.73
2023-05-19T13:55:02.585Z,57.44
2023-05-19T13:57:47.803Z,58.52
2023-05-19T14:00:33.034Z,59.98
2023-05-19T14:03:18.353Z,59.49
2023-05-19T14:06:03.125Z,59.17
2023-05-19T14:08:48.355Z,57.73
2023-05-19T14:11:33.338Z,57.55
2023-05-19T14:14:18.496Z,57.85
2023-05-19T14:17:03.533Z,56.62
2023-05-19T14:19:48.435Z,56.51
2023-05-19T14:22:33.751Z,57.27
2023-05-19T14:25:18.820Z,56.64
2023-05-19T14:28:03.883Z,56.63
2023-05-19T14:30:48.519Z,57.22
2023-05-19T14:33:35.571Z,56.45
2023-05-19T14:36:21.013Z,57.85
2023-05-19T14:39:06.085Z,57.29
2023-05-19T14:41:51.020Z,57.10
2023-05-19T14:44:35.904Z,57.17
2023-05-19T14:47:20.962Z,57.00
2023-05-19T14:50:05.910Z,56.36
2023-05-19T14:52:51.024Z,56.76
2023-05-19T14:55:36.264Z,56.07
2023-05-19T14:58:28.946Z,56.00
2023-05-19T15:01:14.504Z,55.97
2023-05-19T15:03:59.489Z,55.98
2023-05-19T15:06:45.180Z,56.99
2023-05-19T15:09:31.475Z,56.44
2023-05-19T15:12:16.532Z,56.80
2023-05-19T15:15:01.380Z,57.01
2023-05-19T15:17:46.310Z,56.98
2023-05-19T15:20:31.079Z,56.91
2023-05-19T15:23:16.139Z,55.97
2023-05-19T15:26:01.029Z,56.84
2023-05-19T15:28:46.001Z,58.27
2023-05-19T15:31:31.082Z,58.07
2023-05-19T15:40:53.168Z,56.08
2023-05-19T15:43:41.960Z,57.02
2023-05-19T15:46:27.035Z,55.69
2023-05-19T15:49:12.968Z,56.11
2023-05-19T15:51:59.149Z,56.40
2023-05-19T15:54:44.124Z,56.00
2023-05-19T15:57:28.860Z,55.57
2023-05-19T16:00:14.341Z,54.62
2023-05-19T16:02:59.869Z,54.91
2023-05-19T16:05:48.622Z,56.04
2023-05-19T16:08:33.980Z,55.93
2023-05-19T16:11:18.717Z,55.58
2023-05-19T16:14:04.052Z,55.26
2023-05-19T16:16:48.857Z,55.83
2023-05-19T16:19:34.032Z,56.00
2023-05-19T16:22:19.209Z,55.54
2023-05-19T16:25:04.125Z,53.66
2023-05-19T16:27:49.008Z,54.58
2023-05-19T16:30:34.101Z,54.92
2023-05-19T16:33:19.281Z,55.67
2023-05-19T16:36:04.218Z,56.04
2023-05-19T16:38:49.180Z,55.63
2023-05-19T16:41:34.310Z,55.81
2023-05-19T16:44:19.194Z,54.28
2023-05-19T16:47:04.269Z,53.71
2023-05-19T16:49:49.439Z,54.44
2023-05-19T16:52:34.612Z,53.54
2023-05-19T16:55:19.617Z,53.97
2023-05-19T16:58:04.464Z,54.98
2023-05-19T17:00:49.988Z,55.71
2023-05-19T17:03:35.186Z,55.82
2023-05-19T17:06:20.273Z,56.42
2023-05-19T17:09:05.262Z,54.78
2023-05-19T17:11:50.082Z,55.83
2023-05-19T17:14:34.922Z,55.74
2023-05-19T17:17:19.985Z,56.04
2023-05-19T17:20:04.928Z,56.15
2023-05-19T17:22:51.076Z,55.90
2023-05-19T17:25:36.128Z,56.55
2023-05-19T17:28:20.987Z,55.88
2023-05-19T17:31:06.050Z,55.57
2023-05-19T17:33:51.019Z,55.62
2023-05-19T17:36:35.981Z,55.49
2023-05-19T17:39:20.920Z,55.24
2023-05-19T17:42:05.965Z,56.38
2023-05-19T17:44:51.123Z,57.78
2023-05-19T18:03:53.664Z,55.99
2023-05-19T18:09:59.591Z,55.24
2023-05-19T18:13:04.943Z,55.91
2023-05-19T18:16:00.073Z,56.26
2023-05-19T18:18:50.909Z,56.48
2023-05-19T18:24:48.973Z,56.69
2023-05-19T18:27:41.903Z,56.83
2023-05-19T18:46:42.996Z,58.47
2023-05-19T18:49:33.981Z,58.33
2023-05-19T18:55:42.698Z,58.45
2023-05-19T19:01:48.149Z,58.23
2023-05-19T19:04:33.074Z,57.97
2023-05-19T19:07:18.099Z,58.12
2023-05-19T19:10:02.987Z,58.56
2023-05-19T19:12:48.008Z,58.83
2023-05-19T19:15:33.024Z,59.06
2023-05-19T19:18:17.727Z,58.71
2023-05-19T19:21:02.901Z,58.91
2023-05-19T19:23:47.942Z,58.66
2023-05-19T19:26:32.763Z,59.02
2023-05-19T19:29:17.861Z,59.38
2023-05-19T19:32:03.215Z,59.71
2023-05-19T19:34:48.098Z,59.37
2023-05-19T19:37:32.974Z,59.65
2023-05-19T19:40:17.762Z,60.06
2023-05-19T19:43:02.702Z,59.84
2023-05-19T19:45:47.437Z,60.14
2023-05-19T19:48:32.486Z,60.59
2023-05-19T19:51:17.420Z,60.57
2023-05-19T19:54:02.532Z,60.14
2023-05-19T19:56:47.510Z,60.25
2023-05-19T19:59:32.545Z,60.66
2023-05-19T20:02:17.701Z,60.57
2023-05-19T20:05:03.643Z,60.54
2023-05-19T20:07:48.556Z,60.88
2023-05-19T20:10:33.776Z,61.81
2023-05-19T20:13:18.888Z,62.59
2023-05-19T20:16:03.978Z,62.36
2023-05-19T20:18:49.105Z,62.38
2023-05-19T20:21:33.998Z,61.77
2023-05-19T20:24:18.820Z,61.80
2023-05-19T20:27:03.871Z,62.67
2023-05-19T20:29:48.965Z,62.44
2023-05-19T20:32:33.981Z,61.79
2023-05-19T20:35:18.917Z,61.89
2023-05-19T20:38:03.889Z,61.75
2023-05-19T20:40:48.654Z,62.74
2023-05-19T20:43:33.789Z,62.42
2023-05-19T20:46:18.671Z,63.12
2023-05-19T20:49:03.561Z,62.57
2023-05-19T20:51:48.598Z,62.33
2023-05-19T20:54:33.441Z,62.50
2023-05-19T20:57:18.340Z,63.05
2023-05-19T21:00:03.159Z,63.14
2023-05-19T21:02:48.201Z,62.99
2023-05-19T21:05:33.217Z,63.36
2023-05-19T21:08:18.492Z,63.00
2023-05-19T21:11:03.435Z,63.14
2023-05-19T21:13:48.523Z,64.12
2023-05-19T21:16:33.780Z,64.01
2023-05-19T21:19:18.707Z,62.98
2023-05-19T21:22:03.757Z,62.88
2023-05-19T21:24:48.732Z,62.87
2023-05-19T21:27:33.795Z,62.70
2023-05-19T21:30:18.662Z,62.54
2023-05-19T21:33:03.663Z,62.43
2023-05-19T21:35:48.537Z,62.80
2023-05-19T21:38:33.443Z,62.85
2023-05-19T21:41:18.371Z,62.79
2023-05-19T21:44:03.242Z,62.70
2023-05-19T21:46:48.305Z,63.04
2023-05-19T21:49:33.113Z,63.02
2023-05-19T21:52:18.217Z,62.87
2023-05-19T21:55:03.110Z,63.14
2023-05-19T21:57:48.213Z,63.26
2023-05-19T22:00:33.199Z,63.24
2023-05-19T22:03:18.646Z,63.10
2023-05-19T22:06:03.451Z,63.04
2023-05-19T22:08:48.401Z,63.27
2023-05-19T22:11:33.528Z,63.37
2023-05-19T22:14:18.386Z,62.71
2023-05-19T22:17:03.432Z,62.65
2023-05-19T22:19:48.344Z,62.70
2023-05-19T22:22:33.236Z,62.92
2023-05-19T22:25:18.280Z,62.59
2023-05-19T22:28:03.265Z,62.58
2023-05-19T22:30:48.213Z,62.63
2023-05-19T22:33:33.155Z,62.77
2023-05-19T22:36:18.012Z,62.94
2023-05-19T22:39:02.856Z,63.18
2023-05-19T22:41:47.864Z,62.83
2023-05-19T22:44:32.704Z,62.38
2023-05-19T22:47:17.502Z,62.30
2023-05-19T22:50:02.530Z,62.45
2023-05-19T22:52:47.497Z,62.23
2023-05-19T22:55:32.892Z,62.11
2023-05-19T22:58:17.873Z,62.48
2023-05-19T23:01:03.146Z,62.62
2023-05-19T23:03:48.371Z,62.29
2023-05-19T23:06:33.316Z,62.55
2023-05-19T23:09:18.252Z,62.62
2023-05-19T23:12:03.108Z,62.47
2023-05-19T23:14:48.220Z,62.17
2023-05-19T23:17:33.049Z,62.02
2023-05-19T23:20:17.991Z,61.65
2023-05-19T23:23:02.831Z,61.57
2023-05-19T23:25:48.024Z,61.41
2023-05-19T23:28:32.941Z,61.30
2023-05-19T23:31:17.908Z,61.51
2023-05-19T23:34:02.896Z,61.21
2023-05-19T23:36:47.850Z,60.84
2023-05-19T23:39:32.994Z,60.25
2023-05-19T23:42:18.097Z,60.53
2023-05-19T23:45:03.067Z,60.46
2023-05-19T23:47:48.135Z,60.62
2023-05-19T23:50:32.922Z,60.96
2023-05-19T23:53:17.851Z,61.03
2023-05-19T23:56:02.709Z,60.75
2023-05-19T23:58:47.769Z,60.49
